sensor_id;sensor_type;location;lat;lon;timestamp;P1;durP1;ratioP1;P2;durP2;ratioP2
60006;SDS011;45863;50.336;3.536;2022-09-03T00:00:38;19.83;;;12.48;;
60006;SDS011;45863;50.336;3.536;2022-09-03T00:03:19;18.20;;;12.82;;
60006;SDS011;45863;50.336;3.536;2022-09-03T00:05:47;17.10;;;12.15;;
60006;SDS011;45863;50.336;3.536;2022-09-03T00:10:56;17.88;;;11.13;;
60006;SDS011;45863;50.336;3.536;2022-09-03T00:13:28;18.70;;;12.40;;
60006;SDS011;45863;50.336;3.536;2022-09-03T00:15:54;15.38;;;11.25;;
60006;SDS011;45863;50.336;3.536;2022-09-03T00:18:22;15.98;;;11.50;;
60006;SDS011;45863;50.336;3.536;2022-09-03T00:20:50;15.25;;;11.70;;
60006;SDS011;45863;50.336;3.536;2022-09-03T00:23:23;14.10;;;10.73;;
60006;SDS011;45863;50.336;3.536;2022-09-03T00:28:19;14.80;;;11.20;;
60006;SDS011;45863;50.336;3.536;2022-09-03T00:30:49;15.93;;;11.27;;
60006;SDS011;45863;50.336;3.536;2022-09-03T00:33:21;17.88;;;11.30;;
60006;SDS011;45863;50.336;3.536;2022-09-03T00:35:50;15.90;;;12.18;;
60006;SDS011;45863;50.336;3.536;2022-09-03T00:38:17;15.35;;;11.68;;
60006;SDS011;45863;50.336;3.536;2022-09-03T00:40:47;17.57;;;11.87;;
60006;SDS011;45863;50.336;3.536;2022-09-03T00:43:24;17.17;;;12.18;;
60006;SDS011;45863;50.336;3.536;2022-09-03T00:46:14;15.63;;;11.75;;
60006;SDS011;45863;50.336;3.536;2022-09-03T00:48:54;16.83;;;10.27;;
60006;SDS011;45863;50.336;3.536;2022-09-03T00:51:26;16.65;;;11.52;;
60006;SDS011;45863;50.336;3.536;2022-09-03T00:54:08;16.45;;;11.27;;
60006;SDS011;45863;50.336;3.536;2022-09-03T00:59:08;16.85;;;11.63;;
60006;SDS011;45863;50.336;3.536;2022-09-03T01:01:39;16.88;;;11.77;;
60006;SDS011;45863;50.336;3.536;2022-09-03T01:16:53;17.38;;;12.50;;
60006;SDS011;45863;50.336;3.536;2022-09-03T01:32:06;16.33;;;11.55;;
60006;SDS011;45863;50.336;3.536;2022-09-03T01:34:42;14.35;;;11.20;;
60006;SDS011;45863;50.336;3.536;2022-09-03T01:52:52;18.57;;;12.47;;
60006;SDS011;45863;50.336;3.536;2022-09-03T01:55:31;18.45;;;13.23;;
60006;SDS011;45863;50.336;3.536;2022-09-03T01:58:01;18.17;;;13.18;;
60006;SDS011;45863;50.336;3.536;2022-09-03T02:00:26;19.80;;;12.77;;
60006;SDS011;45863;50.336;3.536;2022-09-03T02:02:54;15.55;;;12.23;;
60006;SDS011;45863;50.336;3.536;2022-09-03T02:07:58;18.00;;;13.18;;
60006;SDS011;45863;50.336;3.536;2022-09-03T02:10:30;19.10;;;12.23;;
60006;SDS011;45863;50.336;3.536;2022-09-03T02:15:22;18.67;;;12.52;;
60006;SDS011;45863;50.336;3.536;2022-09-03T02:17:48;17.25;;;11.88;;
60006;SDS011;45863;50.336;3.536;2022-09-03T02:20:16;18.75;;;13.02;;
60006;SDS011;45863;50.336;3.536;2022-09-03T02:22:45;21.92;;;12.45;;
60006;SDS011;45863;50.336;3.536;2022-09-03T02:25:11;17.08;;;11.85;;
60006;SDS011;45863;50.336;3.536;2022-09-03T02:27:37;17.90;;;13.20;;
60006;SDS011;45863;50.336;3.536;2022-09-03T02:30:02;17.13;;;12.13;;
60006;SDS011;45863;50.336;3.536;2022-09-03T02:32:28;18.95;;;12.38;;
60006;SDS011;45863;50.336;3.536;2022-09-03T02:34:53;18.07;;;11.47;;
60006;SDS011;45863;50.336;3.536;2022-09-03T02:37:18;15.80;;;12.07;;
60006;SDS011;45863;50.336;3.536;2022-09-03T02:39:43;19.00;;;12.37;;
60006;SDS011;45863;50.336;3.536;2022-09-03T02:42:09;15.37;;;12.13;;
60006;SDS011;45863;50.336;3.536;2022-09-03T02:44:36;16.60;;;12.57;;
60006;SDS011;45863;50.336;3.536;2022-09-03T02:47:05;15.55;;;12.70;;
60006;SDS011;45863;50.336;3.536;2022-09-03T02:49:31;17.85;;;12.95;;
60006;SDS011;45863;50.336;3.536;2022-09-03T02:52:00;15.45;;;12.00;;
60006;SDS011;45863;50.336;3.536;2022-09-03T02:54:29;17.80;;;12.27;;
60006;SDS011;45863;50.336;3.536;2022-09-03T02:56:55;20.08;;;11.82;;
60006;SDS011;45863;50.336;3.536;2022-09-03T02:59:20;16.08;;;10.45;;
60006;SDS011;45863;50.336;3.536;2022-09-03T03:01:46;15.20;;;10.85;;
60006;SDS011;45863;50.336;3.536;2022-09-03T03:04:12;14.25;;;10.88;;
60006;SDS011;45863;50.336;3.536;2022-09-03T03:06:37;16.35;;;11.38;;
60006;SDS011;45863;50.336;3.536;2022-09-03T03:09:02;15.43;;;10.60;;
60006;SDS011;45863;50.336;3.536;2022-09-03T03:11:30;16.67;;;10.10;;
60006;SDS011;45863;50.336;3.536;2022-09-03T03:13:55;12.18;;;10.13;;
60006;SDS011;45863;50.336;3.536;2022-09-03T03:16:21;16.77;;;10.67;;
60006;SDS011;45863;50.336;3.536;2022-09-03T03:18:46;13.95;;;10.23;;
60006;SDS011;45863;50.336;3.536;2022-09-03T03:21:12;13.83;;;11.00;;
60006;SDS011;45863;50.336;3.536;2022-09-03T03:23:38;15.60;;;11.13;;
60006;SDS011;45863;50.336;3.536;2022-09-03T03:26:04;13.40;;;10.02;;
60006;SDS011;45863;50.336;3.536;2022-09-03T03:28:30;18.20;;;11.15;;
60006;SDS011;45863;50.336;3.536;2022-09-03T03:31:11;16.45;;;10.85;;
60006;SDS011;45863;50.336;3.536;2022-09-03T03:33:37;14.88;;;11.18;;
60006;SDS011;45863;50.336;3.536;2022-09-03T03:36:06;14.32;;;10.07;;
60006;SDS011;45863;50.336;3.536;2022-09-03T03:38:32;14.02;;;9.43;;
60006;SDS011;45863;50.336;3.536;2022-09-03T03:40:57;13.18;;;9.82;;
60006;SDS011;45863;50.336;3.536;2022-09-03T03:43:22;13.87;;;9.50;;
60006;SDS011;45863;50.336;3.536;2022-09-03T03:45:57;16.87;;;11.70;;
60006;SDS011;45863;50.336;3.536;2022-09-03T03:48:22;16.92;;;11.02;;
60006;SDS011;45863;50.336;3.536;2022-09-03T03:50:47;19.02;;;11.80;;
60006;SDS011;45863;50.336;3.536;2022-09-03T03:53:13;15.98;;;12.48;;
60006;SDS011;45863;50.336;3.536;2022-09-03T03:55:38;16.58;;;12.23;;
60006;SDS011;45863;50.336;3.536;2022-09-03T03:58:04;15.17;;;11.80;;
60006;SDS011;45863;50.336;3.536;2022-09-03T04:00:29;15.77;;;11.95;;
60006;SDS011;45863;50.336;3.536;2022-09-03T04:02:54;16.43;;;11.47;;
60006;SDS011;45863;50.336;3.536;2022-09-03T04:05:19;14.80;;;11.13;;
60006;SDS011;45863;50.336;3.536;2022-09-03T04:07:44;16.60;;;10.93;;
60006;SDS011;45863;50.336;3.536;2022-09-03T04:10:10;17.38;;;11.23;;
60006;SDS011;45863;50.336;3.536;2022-09-03T04:12:35;14.18;;;10.75;;
60006;SDS011;45863;50.336;3.536;2022-09-03T04:15:00;16.55;;;10.07;;
60006;SDS011;45863;50.336;3.536;2022-09-03T04:17:26;15.25;;;9.82;;
60006;SDS011;45863;50.336;3.536;2022-09-03T04:19:51;13.70;;;10.20;;
60006;SDS011;45863;50.336;3.536;2022-09-03T04:22:16;14.90;;;10.43;;
60006;SDS011;45863;50.336;3.536;2022-09-03T04:24:43;13.52;;;10.05;;
60006;SDS011;45863;50.336;3.536;2022-09-03T04:27:08;12.57;;;9.93;;
60006;SDS011;45863;50.336;3.536;2022-09-03T04:29:33;11.80;;;9.25;;
60006;SDS011;45863;50.336;3.536;2022-09-03T04:31:59;14.27;;;8.88;;
60006;SDS011;45863;50.336;3.536;2022-09-03T04:34:43;14.90;;;9.63;;
60006;SDS011;45863;50.336;3.536;2022-09-03T04:37:08;11.97;;;9.27;;
60006;SDS011;45863;50.336;3.536;2022-09-03T04:39:33;13.10;;;8.75;;
60006;SDS011;45863;50.336;3.536;2022-09-03T04:41:59;12.37;;;8.80;;
60006;SDS011;45863;50.336;3.536;2022-09-03T04:44:24;11.90;;;8.93;;
60006;SDS011;45863;50.336;3.536;2022-09-03T04:46:49;12.23;;;8.23;;
60006;SDS011;45863;50.336;3.536;2022-09-03T04:49:14;10.83;;;8.93;;
60006;SDS011;45863;50.336;3.536;2022-09-03T04:51:39;12.30;;;8.73;;
60006;SDS011;45863;50.336;3.536;2022-09-03T04:54:05;13.73;;;8.57;;
60006;SDS011;45863;50.336;3.536;2022-09-03T04:56:31;16.13;;;9.18;;
60006;SDS011;45863;50.336;3.536;2022-09-03T04:58:57;13.00;;;9.38;;
60006;SDS011;45863;50.336;3.536;2022-09-03T05:01:24;10.73;;;8.55;;
60006;SDS011;45863;50.336;3.536;2022-09-03T05:03:50;15.05;;;9.07;;
60006;SDS011;45863;50.336;3.536;2022-09-03T05:06:16;11.52;;;8.80;;
60006;SDS011;45863;50.336;3.536;2022-09-03T05:08:42;13.48;;;9.48;;
60006;SDS011;45863;50.336;3.536;2022-09-03T05:11:07;12.60;;;9.15;;
60006;SDS011;45863;50.336;3.536;2022-09-03T05:13:33;17.40;;;8.95;;
60006;SDS011;45863;50.336;3.536;2022-09-03T05:16:03;11.85;;;8.90;;
60006;SDS011;45863;50.336;3.536;2022-09-03T05:18:28;11.15;;;8.07;;
60006;SDS011;45863;50.336;3.536;2022-09-03T05:20:57;11.07;;;8.82;;
60006;SDS011;45863;50.336;3.536;2022-09-03T05:23:23;11.85;;;8.68;;
60006;SDS011;45863;50.336;3.536;2022-09-03T05:25:59;12.73;;;8.80;;
60006;SDS011;45863;50.336;3.536;2022-09-03T05:28:25;13.00;;;9.20;;
60006;SDS011;45863;50.336;3.536;2022-09-03T05:31:04;11.55;;;8.40;;
60006;SDS011;45863;50.336;3.536;2022-09-03T05:33:33;13.07;;;8.55;;
60006;SDS011;45863;50.336;3.536;2022-09-03T05:36:00;10.63;;;8.55;;
60006;SDS011;45863;50.336;3.536;2022-09-03T05:38:26;12.25;;;8.77;;
60006;SDS011;45863;50.336;3.536;2022-09-03T05:40:51;10.63;;;8.23;;
60006;SDS011;45863;50.336;3.536;2022-09-03T05:43:16;13.03;;;8.40;;
60006;SDS011;45863;50.336;3.536;2022-09-03T05:45:41;12.25;;;8.30;;
60006;SDS011;45863;50.336;3.536;2022-09-03T05:48:06;9.57;;;8.23;;
60006;SDS011;45863;50.336;3.536;2022-09-03T05:50:32;10.77;;;8.23;;
60006;SDS011;45863;50.336;3.536;2022-09-03T05:52:57;11.88;;;8.40;;
60006;SDS011;45863;50.336;3.536;2022-09-03T05:55:23;11.27;;;8.27;;
60006;SDS011;45863;50.336;3.536;2022-09-03T05:57:52;11.07;;;7.80;;
60006;SDS011;45863;50.336;3.536;2022-09-03T06:00:17;14.60;;;8.45;;
60006;SDS011;45863;50.336;3.536;2022-09-03T06:02:48;11.68;;;8.50;;
60006;SDS011;45863;50.336;3.536;2022-09-03T06:05:13;11.68;;;8.00;;
60006;SDS011;45863;50.336;3.536;2022-09-03T06:07:40;11.93;;;8.25;;
60006;SDS011;45863;50.336;3.536;2022-09-03T06:10:06;10.93;;;7.70;;
60006;SDS011;45863;50.336;3.536;2022-09-03T06:12:31;10.38;;;8.02;;
60006;SDS011;45863;50.336;3.536;2022-09-03T06:14:56;10.33;;;7.97;;
60006;SDS011;45863;50.336;3.536;2022-09-03T06:17:22;11.65;;;7.90;;
60006;SDS011;45863;50.336;3.536;2022-09-03T06:19:47;11.33;;;7.10;;
60006;SDS011;45863;50.336;3.536;2022-09-03T06:22:12;14.03;;;7.80;;
60006;SDS011;45863;50.336;3.536;2022-09-03T06:24:38;12.40;;;7.75;;
60006;SDS011;45863;50.336;3.536;2022-09-03T06:27:03;10.13;;;7.80;;
60006;SDS011;45863;50.336;3.536;2022-09-03T06:29:28;12.20;;;8.13;;
60006;SDS011;45863;50.336;3.536;2022-09-03T06:31:53;11.18;;;7.97;;
60006;SDS011;45863;50.336;3.536;2022-09-03T06:34:19;9.77;;;7.70;;
60006;SDS011;45863;50.336;3.536;2022-09-03T06:36:46;9.65;;;7.40;;
60006;SDS011;45863;50.336;3.536;2022-09-03T06:39:11;12.80;;;8.10;;
60006;SDS011;45863;50.336;3.536;2022-09-03T06:41:37;10.98;;;8.65;;
60006;SDS011;45863;50.336;3.536;2022-09-03T06:44:06;11.63;;;7.43;;
60006;SDS011;45863;50.336;3.536;2022-09-03T06:46:36;11.02;;;7.72;;
60006;SDS011;45863;50.336;3.536;2022-09-03T06:49:03;12.57;;;8.23;;
60006;SDS011;45863;50.336;3.536;2022-09-03T06:51:29;9.77;;;7.80;;
60006;SDS011;45863;50.336;3.536;2022-09-03T06:53:59;10.52;;;7.88;;
60006;SDS011;45863;50.336;3.536;2022-09-03T06:56:24;11.20;;;7.95;;
60006;SDS011;45863;50.336;3.536;2022-09-03T06:58:52;12.15;;;8.02;;
60006;SDS011;45863;50.336;3.536;2022-09-03T07:01:18;11.77;;;8.00;;
60006;SDS011;45863;50.336;3.536;2022-09-03T07:03:44;11.02;;;7.88;;
60006;SDS011;45863;50.336;3.536;2022-09-03T07:06:13;10.52;;;7.93;;
60006;SDS011;45863;50.336;3.536;2022-09-03T07:08:39;13.75;;;9.13;;
60006;SDS011;45863;50.336;3.536;2022-09-03T07:11:07;12.73;;;8.40;;
60006;SDS011;45863;50.336;3.536;2022-09-03T07:13:36;11.93;;;8.05;;
60006;SDS011;45863;50.336;3.536;2022-09-03T07:16:04;11.65;;;7.53;;
60006;SDS011;45863;50.336;3.536;2022-09-03T07:18:30;11.32;;;8.18;;
60006;SDS011;45863;50.336;3.536;2022-09-03T07:21:03;13.85;;;9.00;;
60006;SDS011;45863;50.336;3.536;2022-09-03T07:23:29;11.20;;;8.57;;
60006;SDS011;45863;50.336;3.536;2022-09-03T07:25:55;10.73;;;7.88;;
60006;SDS011;45863;50.336;3.536;2022-09-03T07:28:21;14.93;;;8.73;;
60006;SDS011;45863;50.336;3.536;2022-09-03T07:30:47;10.18;;;8.00;;
60006;SDS011;45863;50.336;3.536;2022-09-03T07:33:12;12.07;;;7.80;;
60006;SDS011;45863;50.336;3.536;2022-09-03T07:35:38;11.70;;;8.55;;
60006;SDS011;45863;50.336;3.536;2022-09-03T07:38:03;12.50;;;8.17;;
60006;SDS011;45863;50.336;3.536;2022-09-03T07:40:28;13.33;;;9.00;;
60006;SDS011;45863;50.336;3.536;2022-09-03T07:42:56;12.15;;;9.02;;
60006;SDS011;45863;50.336;3.536;2022-09-03T07:45:25;10.60;;;8.55;;
60006;SDS011;45863;50.336;3.536;2022-09-03T07:47:51;12.10;;;8.60;;
60006;SDS011;45863;50.336;3.536;2022-09-03T07:50:17;10.15;;;8.32;;
60006;SDS011;45863;50.336;3.536;2022-09-03T07:52:42;12.90;;;8.32;;
60006;SDS011;45863;50.336;3.536;2022-09-03T07:55:07;11.13;;;8.50;;
60006;SDS011;45863;50.336;3.536;2022-09-03T07:57:33;10.60;;;8.35;;
60006;SDS011;45863;50.336;3.536;2022-09-03T07:59:58;11.40;;;8.35;;
60006;SDS011;45863;50.336;3.536;2022-09-03T08:02:23;12.27;;;7.93;;
60006;SDS011;45863;50.336;3.536;2022-09-03T08:04:49;10.65;;;8.40;;
60006;SDS011;45863;50.336;3.536;2022-09-03T08:07:14;12.30;;;8.38;;
60006;SDS011;45863;50.336;3.536;2022-09-03T08:09:39;12.67;;;8.13;;
60006;SDS011;45863;50.336;3.536;2022-09-03T08:12:05;13.23;;;8.20;;
60006;SDS011;45863;50.336;3.536;2022-09-03T08:14:30;13.00;;;9.18;;
60006;SDS011;45863;50.336;3.536;2022-09-03T08:16:55;12.23;;;8.97;;
60006;SDS011;45863;50.336;3.536;2022-09-03T08:19:21;13.98;;;8.35;;
60006;SDS011;45863;50.336;3.536;2022-09-03T08:21:47;11.70;;;8.85;;
60006;SDS011;45863;50.336;3.536;2022-09-03T08:24:14;10.55;;;8.27;;
60006;SDS011;45863;50.336;3.536;2022-09-03T08:26:40;13.65;;;8.63;;
60006;SDS011;45863;50.336;3.536;2022-09-03T08:29:06;12.70;;;8.82;;
60006;SDS011;45863;50.336;3.536;2022-09-03T08:31:31;12.87;;;8.90;;
60006;SDS011;45863;50.336;3.536;2022-09-03T08:33:58;12.25;;;9.07;;
60006;SDS011;45863;50.336;3.536;2022-09-03T08:36:27;12.05;;;8.90;;
60006;SDS011;45863;50.336;3.536;2022-09-03T08:38:54;11.80;;;8.52;;
60006;SDS011;45863;50.336;3.536;2022-09-03T08:43:52;12.23;;;9.10;;
60006;SDS011;45863;50.336;3.536;2022-09-03T08:46:20;13.10;;;9.38;;
60006;SDS011;45863;50.336;3.536;2022-09-03T08:48:49;10.93;;;9.38;;
60006;SDS011;45863;50.336;3.536;2022-09-03T08:51:15;12.65;;;8.98;;
60006;SDS011;45863;50.336;3.536;2022-09-03T08:53:46;13.07;;;8.77;;
60006;SDS011;45863;50.336;3.536;2022-09-03T08:56:15;12.48;;;9.80;;
60006;SDS011;45863;50.336;3.536;2022-09-03T08:58:43;12.27;;;10.00;;
60006;SDS011;45863;50.336;3.536;2022-09-03T09:14:03;12.95;;;10.27;;
60006;SDS011;45863;50.336;3.536;2022-09-03T09:16:41;13.48;;;10.45;;
60006;SDS011;45863;50.336;3.536;2022-09-03T09:19:16;12.63;;;9.40;;
60006;SDS011;45863;50.336;3.536;2022-09-03T09:21:49;13.75;;;10.02;;
60006;SDS011;45863;50.336;3.536;2022-09-03T09:24:21;14.27;;;9.98;;
60006;SDS011;45863;50.336;3.536;2022-09-03T09:29:12;14.43;;;11.23;;
60006;SDS011;45863;50.336;3.536;2022-09-03T09:31:39;14.25;;;10.43;;
60006;SDS011;45863;50.336;3.536;2022-09-03T09:34:06;13.25;;;9.95;;
60006;SDS011;45863;50.336;3.536;2022-09-03T09:36:34;15.27;;;10.55;;
60006;SDS011;45863;50.336;3.536;2022-09-03T09:39:08;17.43;;;10.57;;
60006;SDS011;45863;50.336;3.536;2022-09-03T09:41:33;14.95;;;11.10;;
60006;SDS011;45863;50.336;3.536;2022-09-03T09:44:00;14.10;;;11.10;;
60006;SDS011;45863;50.336;3.536;2022-09-03T09:46:35;15.30;;;11.65;;
60006;SDS011;45863;50.336;3.536;2022-09-03T09:51:28;17.48;;;11.93;;
60006;SDS011;45863;50.336;3.536;2022-09-03T09:56:24;15.95;;;11.93;;
60006;SDS011;45863;50.336;3.536;2022-09-03T09:59:00;16.67;;;10.63;;
60006;SDS011;45863;50.336;3.536;2022-09-03T10:01:25;13.75;;;10.80;;
60006;SDS011;45863;50.336;3.536;2022-09-03T10:03:55;15.23;;;10.75;;
60006;SDS011;45863;50.336;3.536;2022-09-03T10:06:28;12.77;;;10.05;;
60006;SDS011;45863;50.336;3.536;2022-09-03T10:09:14;11.68;;;9.32;;
60006;SDS011;45863;50.336;3.536;2022-09-03T10:11:43;12.20;;;8.65;;
60006;SDS011;45863;50.336;3.536;2022-09-03T10:14:12;14.55;;;8.88;;
60006;SDS011;45863;50.336;3.536;2022-09-03T10:16:41;10.63;;;8.70;;
60006;SDS011;45863;50.336;3.536;2022-09-03T10:19:15;11.02;;;8.23;;
60006;SDS011;45863;50.336;3.536;2022-09-03T10:26:41;11.90;;;8.13;;
60006;SDS011;45863;50.336;3.536;2022-09-03T10:29:08;10.32;;;8.63;;
60006;SDS011;45863;50.336;3.536;2022-09-03T10:39:03;10.88;;;7.28;;
60006;SDS011;45863;50.336;3.536;2022-09-03T10:41:35;10.88;;;7.22;;
60006;SDS011;45863;50.336;3.536;2022-09-03T10:49:23;9.68;;;6.28;;
60006;SDS011;45863;50.336;3.536;2022-09-03T10:54:20;11.60;;;8.03;;
60006;SDS011;45863;50.336;3.536;2022-09-03T10:57:00;11.73;;;7.35;;
60006;SDS011;45863;50.336;3.536;2022-09-03T11:02:25;8.98;;;5.10;;
60006;SDS011;45863;50.336;3.536;2022-09-03T11:04:55;11.27;;;6.30;;
60006;SDS011;45863;50.336;3.536;2022-09-03T11:07:27;8.48;;;6.00;;
60006;SDS011;45863;50.336;3.536;2022-09-03T11:10:08;9.73;;;5.70;;
60006;SDS011;45863;50.336;3.536;2022-09-03T11:12:36;11.18;;;6.22;;
60006;SDS011;45863;50.336;3.536;2022-09-03T11:17:30;9.25;;;6.03;;
60006;SDS011;45863;50.336;3.536;2022-09-03T11:20:16;10.90;;;5.40;;
60006;SDS011;45863;50.336;3.536;2022-09-03T11:22:42;7.88;;;5.10;;
60006;SDS011;45863;50.336;3.536;2022-09-03T11:25:09;8.93;;;5.65;;
60006;SDS011;45863;50.336;3.536;2022-09-03T11:30:07;10.63;;;5.27;;
60006;SDS011;45863;50.336;3.536;2022-09-03T11:35:13;7.88;;;4.40;;
60006;SDS011;45863;50.336;3.536;2022-09-03T11:40:27;10.32;;;4.32;;
60006;SDS011;45863;50.336;3.536;2022-09-03T11:42:53;8.73;;;3.83;;
60006;SDS011;45863;50.336;3.536;2022-09-03T11:47:55;6.28;;;4.00;;
60006;SDS011;45863;50.336;3.536;2022-09-03T11:50:30;7.05;;;3.55;;
60006;SDS011;45863;50.336;3.536;2022-09-03T11:58:29;5.30;;;3.38;;
60006;SDS011;45863;50.336;3.536;2022-09-03T12:00:56;5.72;;;3.63;;
60006;SDS011;45863;50.336;3.536;2022-09-03T12:03:24;5.03;;;2.92;;
60006;SDS011;45863;50.336;3.536;2022-09-03T12:08:42;7.88;;;3.47;;
60006;SDS011;45863;50.336;3.536;2022-09-03T12:19:08;6.60;;;3.75;;
60006;SDS011;45863;50.336;3.536;2022-09-03T12:21:38;6.30;;;3.75;;
60006;SDS011;45863;50.336;3.536;2022-09-03T12:24:05;8.82;;;4.57;;
60006;SDS011;45863;50.336;3.536;2022-09-03T12:26:37;6.80;;;3.70;;
60006;SDS011;45863;50.336;3.536;2022-09-03T12:29:02;7.00;;;4.70;;
60006;SDS011;45863;50.336;3.536;2022-09-03T12:31:30;5.88;;;3.65;;
60006;SDS011;45863;50.336;3.536;2022-09-03T12:34:02;6.78;;;4.10;;
60006;SDS011;45863;50.336;3.536;2022-09-03T12:36:36;6.10;;;3.83;;
60006;SDS011;45863;50.336;3.536;2022-09-03T12:39:08;5.97;;;3.08;;
60006;SDS011;45863;50.336;3.536;2022-09-03T12:41:35;5.78;;;3.22;;
60006;SDS011;45863;50.336;3.536;2022-09-03T12:44:01;10.65;;;3.55;;
60006;SDS011;45863;50.336;3.536;2022-09-03T12:46:28;8.68;;;3.25;;
60006;SDS011;45863;50.336;3.536;2022-09-03T12:49:26;7.07;;;3.17;;
60006;SDS011;45863;50.336;3.536;2022-09-03T12:51:45;7.53;;;3.13;;
60006;SDS011;45863;50.336;3.536;2022-09-03T12:54:11;4.13;;;2.25;;
60006;SDS011;45863;50.336;3.536;2022-09-03T12:56:44;4.30;;;2.20;;
60006;SDS011;45863;50.336;3.536;2022-09-03T12:59:13;4.05;;;2.10;;
60006;SDS011;45863;50.336;3.536;2022-09-03T13:01:51;4.50;;;2.28;;
60006;SDS011;45863;50.336;3.536;2022-09-03T13:04:18;6.03;;;2.42;;
60006;SDS011;45863;50.336;3.536;2022-09-03T13:07:46;4.82;;;2.65;;
60006;SDS011;45863;50.336;3.536;2022-09-03T13:09:39;4.80;;;2.42;;
60006;SDS011;45863;50.336;3.536;2022-09-03T13:12:05;6.28;;;2.83;;
60006;SDS011;45863;50.336;3.536;2022-09-03T13:14:43;5.35;;;2.40;;
60006;SDS011;45863;50.336;3.536;2022-09-03T13:17:17;5.75;;;3.03;;
60006;SDS011;45863;50.336;3.536;2022-09-03T13:19:49;6.22;;;2.80;;
60006;SDS011;45863;50.336;3.536;2022-09-03T13:22:30;8.20;;;3.08;;
60006;SDS011;45863;50.336;3.536;2022-09-03T13:30:21;5.60;;;2.20;;
60006;SDS011;45863;50.336;3.536;2022-09-03T13:43:03;4.38;;;2.38;;
60006;SDS011;45863;50.336;3.536;2022-09-03T13:45:38;4.93;;;2.65;;
60006;SDS011;45863;50.336;3.536;2022-09-03T13:48:24;7.78;;;2.70;;
60006;SDS011;45863;50.336;3.536;2022-09-03T13:51:19;4.90;;;2.47;;
60006;SDS011;45863;50.336;3.536;2022-09-03T13:56:18;5.07;;;2.60;;
60006;SDS011;45863;50.336;3.536;2022-09-03T13:58:49;7.05;;;3.30;;
60006;SDS011;45863;50.336;3.536;2022-09-03T14:03:56;9.27;;;4.57;;
60006;SDS011;45863;50.336;3.536;2022-09-03T14:19:22;6.30;;;2.47;;
60006;SDS011;45863;50.336;3.536;2022-09-03T14:22:07;4.88;;;2.33;;
60006;SDS011;45863;50.336;3.536;2022-09-03T14:27:29;2.05;;;1.10;;
60006;SDS011;45863;50.336;3.536;2022-09-03T14:30:05;2.28;;;0.90;;
60006;SDS011;45863;50.336;3.536;2022-09-03T14:32:32;2.55;;;0.77;;
60006;SDS011;45863;50.336;3.536;2022-09-03T14:43:06;4.47;;;1.30;;
60006;SDS011;45863;50.336;3.536;2022-09-03T14:50:51;3.77;;;1.70;;
60006;SDS011;45863;50.336;3.536;2022-09-03T14:59:04;4.70;;;2.40;;
60006;SDS011;45863;50.336;3.536;2022-09-03T15:01:10;5.22;;;2.30;;
60006;SDS011;45863;50.336;3.536;2022-09-03T15:06:36;4.50;;;2.03;;
60006;SDS011;45863;50.336;3.536;2022-09-03T15:09:12;4.55;;;2.22;;
60006;SDS011;45863;50.336;3.536;2022-09-03T15:12:21;5.05;;;1.92;;
60006;SDS011;45863;50.336;3.536;2022-09-03T15:14:46;4.10;;;1.70;;
60006;SDS011;45863;50.336;3.536;2022-09-03T15:19:49;9.65;;;2.10;;
60006;SDS011;45863;50.336;3.536;2022-09-03T15:22:33;10.20;;;1.92;;
60006;SDS011;45863;50.336;3.536;2022-09-03T15:30:12;18.63;;;2.50;;
60006;SDS011;45863;50.336;3.536;2022-09-03T15:37:41;5.38;;;2.00;;
60006;SDS011;45863;50.336;3.536;2022-09-03T15:40:14;4.57;;;2.30;;
60006;SDS011;45863;50.336;3.536;2022-09-03T15:42:41;4.15;;;2.17;;
60006;SDS011;45863;50.336;3.536;2022-09-03T15:45:14;5.15;;;2.20;;
60006;SDS011;45863;50.336;3.536;2022-09-03T15:55:12;4.93;;;2.70;;
60006;SDS011;45863;50.336;3.536;2022-09-03T15:57:54;6.28;;;2.63;;
60006;SDS011;45863;50.336;3.536;2022-09-03T16:00:29;5.32;;;2.53;;
60006;SDS011;45863;50.336;3.536;2022-09-03T16:03:06;5.05;;;2.47;;
60006;SDS011;45863;50.336;3.536;2022-09-03T16:05:40;5.22;;;2.42;;
60006;SDS011;45863;50.336;3.536;2022-09-03T16:10:35;7.07;;;2.80;;
60006;SDS011;45863;50.336;3.536;2022-09-03T16:13:05;6.78;;;2.83;;
60006;SDS011;45863;50.336;3.536;2022-09-03T16:15:45;5.38;;;2.28;;
60006;SDS011;45863;50.336;3.536;2022-09-03T16:18:25;5.72;;;2.20;;
60006;SDS011;45863;50.336;3.536;2022-09-03T16:21:01;4.68;;;2.30;;
60006;SDS011;45863;50.336;3.536;2022-09-03T16:28:45;7.18;;;1.70;;
60006;SDS011;45863;50.336;3.536;2022-09-03T16:38:57;7.13;;;2.13;;
60006;SDS011;45863;50.336;3.536;2022-09-03T16:41:35;7.30;;;2.30;;
60006;SDS011;45863;50.336;3.536;2022-09-03T17:07:10;5.07;;;2.15;;
60006;SDS011;45863;50.336;3.536;2022-09-03T17:22:19;6.30;;;2.45;;
60006;SDS011;45863;50.336;3.536;2022-09-03T17:24:47;5.78;;;2.30;;
60006;SDS011;45863;50.336;3.536;2022-09-03T17:27:42;7.97;;;2.30;;
60006;SDS011;45863;50.336;3.536;2022-09-03T17:30:54;7.60;;;2.45;;
60006;SDS011;45863;50.336;3.536;2022-09-03T17:33:26;4.78;;;2.25;;
60006;SDS011;45863;50.336;3.536;2022-09-03T17:43:32;5.82;;;2.65;;
60006;SDS011;45863;50.336;3.536;2022-09-03T17:46:06;4.50;;;2.20;;
60006;SDS011;45863;50.336;3.536;2022-09-03T17:53:38;4.18;;;2.25;;
60006;SDS011;45863;50.336;3.536;2022-09-03T17:56:17;4.93;;;2.60;;
60006;SDS011;45863;50.336;3.536;2022-09-03T17:59:07;6.57;;;2.55;;
60006;SDS011;45863;50.336;3.536;2022-09-03T18:01:32;6.80;;;2.50;;
60006;SDS011;45863;50.336;3.536;2022-09-03T18:03:59;6.47;;;2.78;;
60006;SDS011;45863;50.336;3.536;2022-09-03T18:08:52;5.07;;;2.40;;
60006;SDS011;45863;50.336;3.536;2022-09-03T18:11:22;6.72;;;2.58;;
60006;SDS011;45863;50.336;3.536;2022-09-03T18:16:54;7.03;;;3.05;;
60006;SDS011;45863;50.336;3.536;2022-09-03T18:19:32;8.95;;;2.95;;
60006;SDS011;45863;50.336;3.536;2022-09-03T18:22:17;8.30;;;3.03;;
60006;SDS011;45863;50.336;3.536;2022-09-03T18:25:03;10.02;;;2.70;;
60006;SDS011;45863;50.336;3.536;2022-09-03T18:27:49;10.23;;;2.83;;
60006;SDS011;45863;50.336;3.536;2022-09-03T18:30:33;5.72;;;2.47;;
60006;SDS011;45863;50.336;3.536;2022-09-03T18:33:22;6.68;;;3.13;;
60006;SDS011;45863;50.336;3.536;2022-09-03T18:36:07;11.57;;;3.15;;
60006;SDS011;45863;50.336;3.536;2022-09-03T18:38:51;9.68;;;3.15;;
60006;SDS011;45863;50.336;3.536;2022-09-03T18:41:39;6.80;;;3.20;;
60006;SDS011;45863;50.336;3.536;2022-09-03T18:50:44;5.13;;;3.10;;
60006;SDS011;45863;50.336;3.536;2022-09-03T18:53:34;6.32;;;3.33;;
60006;SDS011;45863;50.336;3.536;2022-09-03T18:56:39;7.22;;;3.20;;
60006;SDS011;45863;50.336;3.536;2022-09-03T19:02:32;8.93;;;3.55;;
60006;SDS011;45863;50.336;3.536;2022-09-03T19:05:38;7.65;;;2.92;;
60006;SDS011;45863;50.336;3.536;2022-09-03T19:08:31;6.97;;;3.20;;
60006;SDS011;45863;50.336;3.536;2022-09-03T19:14:03;6.63;;;3.00;;
60006;SDS011;45863;50.336;3.536;2022-09-03T19:22:25;10.20;;;3.40;;
60006;SDS011;45863;50.336;3.536;2022-09-03T19:25:11;17.95;;;5.45;;
60006;SDS011;45863;50.336;3.536;2022-09-03T19:30:52;270.05;;;54.92;;
60006;SDS011;45863;50.336;3.536;2022-09-03T19:33:51;13.48;;;6.57;;
60006;SDS011;45863;50.336;3.536;2022-09-03T19:36:43;17.25;;;6.75;;
60006;SDS011;45863;50.336;3.536;2022-09-03T19:39:48;12.23;;;7.18;;
60006;SDS011;45863;50.336;3.536;2022-09-03T19:42:41;13.40;;;6.97;;
60006;SDS011;45863;50.336;3.536;2022-09-03T19:48:18;13.60;;;6.28;;
60006;SDS011;45863;50.336;3.536;2022-09-03T19:51:24;12.30;;;5.35;;
60006;SDS011;45863;50.336;3.536;2022-09-03T19:54:11;10.00;;;4.95;;
60006;SDS011;45863;50.336;3.536;2022-09-03T19:56:56;12.50;;;5.50;;